Terminal Aerodrome Forecast
Issued by NWS

Home | Current Version | Previous Version | Text Only | Print | Product List | Glossary On
Versions: 1 2 3 4 5 6 7 8 9 10 11 12 13 14 15 16 17 18 19
000
FTUS41 KCAR 202212 AAA
TAFPQI
TAF AMD
KPQI 202212Z 2022/2118 36004KT P6SM VCSH OVC015
      TEMPO 2022/2102 -SHSN
     FM210200 VRB03KT P6SM OVC015
      AMD LTD TO CLD VIS AND WIND=

USA.gov is the U.S. government's official web portal to all federal, state and local government web resources and services.